Weather at Carroll County Regional Jack B Poage Field

Public forecast

Using degrees Fahrenheit for public forecast. Weather courtesy of forecast.io.

Current aviation weather report (METAR) for Carroll County Regional Jack B Poage Field

Retrieved 2020/10/01 12:35 UTC (4 minutes ago):

KDMW 011235Z AUTO 24005KT 10SM CLR 15/12 A2994 RMK AO2

Closest aviation forecast (TAF) to Carroll County Regional Jack B Poage Field

Closest forecast is Baltimore/Washington International Thurgood Marshall Airport, 30.4 nm (56.3 km) SSE. Retrieved 2020/10/01 12:42 UTC (0 seconds ago):

TAF KBWI 011139Z 0112/0218 27004KT P6SM FEW150 FM011400 28006KT P6SM SKC FM012100 31005KT P6SM SCT080 FM012300 VRB03KT P6SM -SHRA BKN060 FM020800 34004KT P6SM OVC050 FM021400 32004KT P6SM FEW100